Terminal Aerodrome Forecast
Issued by NWS Wilmington, OH

Home | Current Version | Previous Version | Text Only | Print | Product List | Glossary On
Versions: 1 2 3 4 5 6 7 8 9 10 11 12 13 14 15 16 17 18 19
153
FTUS41 KILN 271346 AAA
TAFCMH
TAF AMD
KCMH 271346Z 2714/2812 17004KT P6SM VCSH BKN040
     FM271600 20005KT P6SM SHRA VCTS OVC045CB
     FM271800 21006KT P6SM VCSH OVC050
     FM272100 21006KT 5SM -SHRA BR VCTS OVC035CB
     FM280100 17003KT P6SM VCSH OVC035
     FM280600 VRB03KT P6SM OVC012
     FM280800 03003KT P6SM OVC006=

USA.gov is the U.S. government's official web portal to all federal, state and local government web resources and services.